sensor_id;sensor_type;location;lat;lon;timestamp;P1;durP1;ratioP1;P2;durP2;ratioP2
26820;SDS011;37186;51.394;5.454;2023-07-02T00:02:12;3.30;;;3.20;;
26820;SDS011;37186;51.394;5.454;2023-07-02T00:05:12;3.38;;;3.28;;
26820;SDS011;37186;51.394;5.454;2023-07-02T00:08:13;3.40;;;3.30;;
26820;SDS011;37186;51.394;5.454;2023-07-02T00:11:15;3.30;;;3.20;;
26820;SDS011;37186;51.394;5.454;2023-07-02T00:14:15;3.25;;;3.15;;
26820;SDS011;37186;51.394;5.454;2023-07-02T00:17:16;3.08;;;2.97;;
26820;SDS011;37186;51.394;5.454;2023-07-02T00:20:17;3.13;;;3.03;;
26820;SDS011;37186;51.394;5.454;2023-07-02T00:23:19;3.10;;;3.00;;
26820;SDS011;37186;51.394;5.454;2023-07-02T00:26:21;3.13;;;3.03;;
26820;SDS011;37186;51.394;5.454;2023-07-02T00:29:21;3.20;;;3.10;;
26820;SDS011;37186;51.394;5.454;2023-07-02T00:32:22;3.25;;;3.15;;
26820;SDS011;37186;51.394;5.454;2023-07-02T00:35:22;3.00;;;2.90;;
26820;SDS011;37186;51.394;5.454;2023-07-02T00:38:23;3.28;;;3.17;;
26820;SDS011;37186;51.394;5.454;2023-07-02T00:41:24;3.10;;;3.00;;
26820;SDS011;37186;51.394;5.454;2023-07-02T00:44:25;3.45;;;3.35;;
26820;SDS011;37186;51.394;5.454;2023-07-02T00:47:25;3.30;;;3.20;;
26820;SDS011;37186;51.394;5.454;2023-07-02T00:50:26;3.40;;;3.30;;
26820;SDS011;37186;51.394;5.454;2023-07-02T00:53:27;3.20;;;3.10;;
26820;SDS011;37186;51.394;5.454;2023-07-02T00:56:27;3.50;;;3.40;;
26820;SDS011;37186;51.394;5.454;2023-07-02T00:59:29;3.30;;;3.20;;
26820;SDS011;37186;51.394;5.454;2023-07-02T01:02:30;3.20;;;3.10;;
26820;SDS011;37186;51.394;5.454;2023-07-02T01:05:31;3.28;;;3.17;;
26820;SDS011;37186;51.394;5.454;2023-07-02T01:08:35;3.30;;;3.20;;
26820;SDS011;37186;51.394;5.454;2023-07-02T01:11:43;3.20;;;3.10;;
26820;SDS011;37186;51.394;5.454;2023-07-02T01:14:50;3.25;;;3.15;;
26820;SDS011;37186;51.394;5.454;2023-07-02T01:17:53;3.30;;;3.20;;
26820;SDS011;37186;51.394;5.454;2023-07-02T01:20:55;3.30;;;3.20;;
26820;SDS011;37186;51.394;5.454;2023-07-02T01:23:56;3.30;;;3.20;;
26820;SDS011;37186;51.394;5.454;2023-07-02T01:26:58;3.15;;;3.05;;
26820;SDS011;37186;51.394;5.454;2023-07-02T01:30:01;3.05;;;2.95;;
26820;SDS011;37186;51.394;5.454;2023-07-02T01:33:01;3.30;;;3.20;;
26820;SDS011;37186;51.394;5.454;2023-07-02T01:36:02;3.30;;;3.20;;
26820;SDS011;37186;51.394;5.454;2023-07-02T01:39:03;3.30;;;3.20;;
26820;SDS011;37186;51.394;5.454;2023-07-02T01:42:17;3.10;;;3.00;;
26820;SDS011;37186;51.394;5.454;2023-07-02T01:45:18;3.10;;;3.00;;
26820;SDS011;37186;51.394;5.454;2023-07-02T01:48:19;3.10;;;3.00;;
26820;SDS011;37186;51.394;5.454;2023-07-02T01:51:19;3.20;;;3.10;;
26820;SDS011;37186;51.394;5.454;2023-07-02T01:54:21;3.17;;;3.08;;
26820;SDS011;37186;51.394;5.454;2023-07-02T01:57:22;3.20;;;3.10;;
26820;SDS011;37186;51.394;5.454;2023-07-02T02:00:23;3.03;;;2.92;;
26820;SDS011;37186;51.394;5.454;2023-07-02T02:03:25;2.95;;;2.85;;
26820;SDS011;37186;51.394;5.454;2023-07-02T02:06:25;3.33;;;3.22;;
26820;SDS011;37186;51.394;5.454;2023-07-02T02:09:26;3.30;;;3.20;;
26820;SDS011;37186;51.394;5.454;2023-07-02T02:12:28;2.90;;;2.80;;
26820;SDS011;37186;51.394;5.454;2023-07-02T02:15:30;2.97;;;2.88;;
26820;SDS011;37186;51.394;5.454;2023-07-02T02:18:30;3.10;;;3.00;;
26820;SDS011;37186;51.394;5.454;2023-07-02T02:21:31;3.20;;;3.10;;
26820;SDS011;37186;51.394;5.454;2023-07-02T02:24:32;3.15;;;3.05;;
26820;SDS011;37186;51.394;5.454;2023-07-02T02:27:32;3.30;;;3.20;;
26820;SDS011;37186;51.394;5.454;2023-07-02T02:30:33;3.20;;;3.10;;
26820;SDS011;37186;51.394;5.454;2023-07-02T02:33:34;3.10;;;3.00;;
26820;SDS011;37186;51.394;5.454;2023-07-02T02:36:35;3.00;;;2.90;;
26820;SDS011;37186;51.394;5.454;2023-07-02T02:39:36;3.05;;;2.95;;
26820;SDS011;37186;51.394;5.454;2023-07-02T02:42:36;3.00;;;2.90;;
26820;SDS011;37186;51.394;5.454;2023-07-02T02:45:38;3.00;;;2.90;;
26820;SDS011;37186;51.394;5.454;2023-07-02T02:48:39;3.00;;;2.90;;
26820;SDS011;37186;51.394;5.454;2023-07-02T02:51:39;3.05;;;2.95;;
26820;SDS011;37186;51.394;5.454;2023-07-02T02:54:40;2.75;;;2.72;;
26820;SDS011;37186;51.394;5.454;2023-07-02T02:57:41;2.90;;;2.80;;
26820;SDS011;37186;51.394;5.454;2023-07-02T03:00:43;2.60;;;2.60;;
26820;SDS011;37186;51.394;5.454;2023-07-02T03:03:45;2.90;;;2.80;;
26820;SDS011;37186;51.394;5.454;2023-07-02T03:06:46;2.65;;;2.65;;
26820;SDS011;37186;51.394;5.454;2023-07-02T03:09:46;2.95;;;2.85;;
26820;SDS011;37186;51.394;5.454;2023-07-02T03:12:47;2.95;;;2.85;;
26820;SDS011;37186;51.394;5.454;2023-07-02T03:15:48;2.92;;;2.83;;
26820;SDS011;37186;51.394;5.454;2023-07-02T03:18:48;2.80;;;2.70;;
26820;SDS011;37186;51.394;5.454;2023-07-02T03:21:49;2.80;;;2.75;;
26820;SDS011;37186;51.394;5.454;2023-07-02T03:24:50;2.90;;;2.80;;
26820;SDS011;37186;51.394;5.454;2023-07-02T03:27:50;3.13;;;3.03;;
26820;SDS011;37186;51.394;5.454;2023-07-02T03:30:51;3.00;;;2.90;;
26820;SDS011;37186;51.394;5.454;2023-07-02T03:33:51;2.92;;;2.83;;
26820;SDS011;37186;51.394;5.454;2023-07-02T03:36:52;3.15;;;3.05;;
26820;SDS011;37186;51.394;5.454;2023-07-02T03:39:52;2.90;;;2.80;;
26820;SDS011;37186;51.394;5.454;2023-07-02T03:42:53;3.00;;;2.90;;
26820;SDS011;37186;51.394;5.454;2023-07-02T03:45:54;3.15;;;3.05;;
26820;SDS011;37186;51.394;5.454;2023-07-02T03:48:54;3.40;;;3.30;;
26820;SDS011;37186;51.394;5.454;2023-07-02T03:51:55;3.10;;;3.00;;
26820;SDS011;37186;51.394;5.454;2023-07-02T03:54:55;3.20;;;3.10;;
26820;SDS011;37186;51.394;5.454;2023-07-02T03:57:56;3.15;;;3.05;;
26820;SDS011;37186;51.394;5.454;2023-07-02T04:00:56;3.20;;;3.10;;
26820;SDS011;37186;51.394;5.454;2023-07-02T04:03:57;3.40;;;3.30;;
26820;SDS011;37186;51.394;5.454;2023-07-02T04:06:58;3.20;;;3.10;;
26820;SDS011;37186;51.394;5.454;2023-07-02T04:09:58;3.40;;;3.30;;
26820;SDS011;37186;51.394;5.454;2023-07-02T04:12:59;3.35;;;3.25;;
26820;SDS011;37186;51.394;5.454;2023-07-02T04:16:00;3.40;;;3.30;;
26820;SDS011;37186;51.394;5.454;2023-07-02T04:19:00;3.50;;;3.40;;
26820;SDS011;37186;51.394;5.454;2023-07-02T04:22:01;3.20;;;3.10;;
26820;SDS011;37186;51.394;5.454;2023-07-02T04:25:02;3.38;;;3.28;;
26820;SDS011;37186;51.394;5.454;2023-07-02T04:28:03;3.58;;;3.47;;
26820;SDS011;37186;51.394;5.454;2023-07-02T04:31:03;3.65;;;3.55;;
26820;SDS011;37186;51.394;5.454;2023-07-02T04:34:04;3.42;;;3.33;;
26820;SDS011;37186;51.394;5.454;2023-07-02T04:37:05;3.28;;;3.17;;
26820;SDS011;37186;51.394;5.454;2023-07-02T04:40:06;3.40;;;3.30;;
26820;SDS011;37186;51.394;5.454;2023-07-02T04:43:10;3.42;;;3.33;;
26820;SDS011;37186;51.394;5.454;2023-07-02T04:46:11;3.45;;;3.35;;
26820;SDS011;37186;51.394;5.454;2023-07-02T04:49:12;3.30;;;3.20;;
26820;SDS011;37186;51.394;5.454;2023-07-02T04:52:12;3.28;;;3.17;;
26820;SDS011;37186;51.394;5.454;2023-07-02T04:55:13;3.28;;;3.17;;
26820;SDS011;37186;51.394;5.454;2023-07-02T04:58:14;3.40;;;3.30;;
26820;SDS011;37186;51.394;5.454;2023-07-02T05:01:14;3.42;;;3.33;;
26820;SDS011;37186;51.394;5.454;2023-07-02T05:04:15;3.45;;;3.35;;
26820;SDS011;37186;51.394;5.454;2023-07-02T05:07:15;3.22;;;3.13;;
26820;SDS011;37186;51.394;5.454;2023-07-02T05:10:16;3.10;;;3.00;;
26820;SDS011;37186;51.394;5.454;2023-07-02T05:13:17;3.10;;;3.00;;
26820;SDS011;37186;51.394;5.454;2023-07-02T05:16:17;3.13;;;3.03;;
26820;SDS011;37186;51.394;5.454;2023-07-02T05:19:18;3.30;;;3.20;;
26820;SDS011;37186;51.394;5.454;2023-07-02T05:22:18;3.00;;;2.90;;
26820;SDS011;37186;51.394;5.454;2023-07-02T05:25:19;3.20;;;3.10;;
26820;SDS011;37186;51.394;5.454;2023-07-02T05:28:20;3.10;;;3.00;;
26820;SDS011;37186;51.394;5.454;2023-07-02T05:31:20;3.20;;;3.10;;
26820;SDS011;37186;51.394;5.454;2023-07-02T05:34:21;3.20;;;3.10;;
26820;SDS011;37186;51.394;5.454;2023-07-02T05:37:22;3.20;;;3.10;;
26820;SDS011;37186;51.394;5.454;2023-07-02T05:40:23;3.00;;;2.90;;
26820;SDS011;37186;51.394;5.454;2023-07-02T05:43:23;3.20;;;3.10;;
26820;SDS011;37186;51.394;5.454;2023-07-02T05:46:24;3.22;;;3.13;;
26820;SDS011;37186;51.394;5.454;2023-07-02T05:49:25;3.03;;;2.92;;
26820;SDS011;37186;51.394;5.454;2023-07-02T05:52:26;3.10;;;3.00;;
26820;SDS011;37186;51.394;5.454;2023-07-02T05:55:26;3.00;;;2.90;;
26820;SDS011;37186;51.394;5.454;2023-07-02T05:58:27;3.10;;;3.00;;
26820;SDS011;37186;51.394;5.454;2023-07-02T06:01:29;3.00;;;2.90;;
26820;SDS011;37186;51.394;5.454;2023-07-02T06:04:30;2.92;;;2.83;;
26820;SDS011;37186;51.394;5.454;2023-07-02T06:07:31;3.08;;;2.97;;
26820;SDS011;37186;51.394;5.454;2023-07-02T06:10:31;2.83;;;2.72;;
26820;SDS011;37186;51.394;5.454;2023-07-02T06:13:32;2.90;;;2.80;;
26820;SDS011;37186;51.394;5.454;2023-07-02T06:16:32;2.97;;;2.88;;
26820;SDS011;37186;51.394;5.454;2023-07-02T06:19:33;2.72;;;2.70;;
26820;SDS011;37186;51.394;5.454;2023-07-02T06:22:34;3.03;;;2.92;;
26820;SDS011;37186;51.394;5.454;2023-07-02T06:25:34;3.17;;;3.08;;
26820;SDS011;37186;51.394;5.454;2023-07-02T06:28:35;2.97;;;2.88;;
26820;SDS011;37186;51.394;5.454;2023-07-02T06:31:36;3.00;;;2.90;;
26820;SDS011;37186;51.394;5.454;2023-07-02T06:34:37;2.90;;;2.80;;
26820;SDS011;37186;51.394;5.454;2023-07-02T06:37:37;3.13;;;3.03;;
26820;SDS011;37186;51.394;5.454;2023-07-02T06:40:38;2.80;;;2.70;;
26820;SDS011;37186;51.394;5.454;2023-07-02T06:43:41;2.58;;;2.58;;
26820;SDS011;37186;51.394;5.454;2023-07-02T06:46:45;2.88;;;2.78;;
26820;SDS011;37186;51.394;5.454;2023-07-02T06:49:46;3.10;;;3.00;;
26820;SDS011;37186;51.394;5.454;2023-07-02T06:52:46;3.03;;;2.92;;
26820;SDS011;37186;51.394;5.454;2023-07-02T06:55:47;2.90;;;2.80;;
26820;SDS011;37186;51.394;5.454;2023-07-02T06:58:47;2.85;;;2.75;;
26820;SDS011;37186;51.394;5.454;2023-07-02T07:01:49;2.95;;;2.85;;
26820;SDS011;37186;51.394;5.454;2023-07-02T07:04:52;2.92;;;2.83;;
26820;SDS011;37186;51.394;5.454;2023-07-02T07:07:53;3.28;;;3.17;;
26820;SDS011;37186;51.394;5.454;2023-07-02T07:10:53;3.40;;;3.30;;
26820;SDS011;37186;51.394;5.454;2023-07-02T07:13:54;3.35;;;3.25;;
26820;SDS011;37186;51.394;5.454;2023-07-02T07:16:55;3.03;;;2.92;;
26820;SDS011;37186;51.394;5.454;2023-07-02T07:19:55;3.17;;;3.08;;
26820;SDS011;37186;51.394;5.454;2023-07-02T07:22:56;3.70;;;3.60;;
26820;SDS011;37186;51.394;5.454;2023-07-02T07:25:57;3.28;;;3.17;;
26820;SDS011;37186;51.394;5.454;2023-07-02T07:28:57;3.35;;;3.25;;
26820;SDS011;37186;51.394;5.454;2023-07-02T07:31:58;3.22;;;3.13;;
26820;SDS011;37186;51.394;5.454;2023-07-02T07:34:59;3.40;;;3.30;;
26820;SDS011;37186;51.394;5.454;2023-07-02T07:37:59;3.60;;;3.50;;
26820;SDS011;37186;51.394;5.454;2023-07-02T07:41:00;3.47;;;3.38;;
26820;SDS011;37186;51.394;5.454;2023-07-02T07:44:00;3.20;;;3.10;;
26820;SDS011;37186;51.394;5.454;2023-07-02T07:47:01;2.97;;;2.88;;
26820;SDS011;37186;51.394;5.454;2023-07-02T07:50:02;3.05;;;2.95;;
26820;SDS011;37186;51.394;5.454;2023-07-02T07:53:03;2.95;;;2.85;;
26820;SDS011;37186;51.394;5.454;2023-07-02T07:56:03;3.20;;;3.10;;
26820;SDS011;37186;51.394;5.454;2023-07-02T07:59:04;3.00;;;2.90;;
26820;SDS011;37186;51.394;5.454;2023-07-02T08:02:05;3.30;;;3.20;;
26820;SDS011;37186;51.394;5.454;2023-07-02T08:05:06;3.13;;;3.03;;
26820;SDS011;37186;51.394;5.454;2023-07-02T08:08:07;3.20;;;3.10;;
26820;SDS011;37186;51.394;5.454;2023-07-02T08:11:08;3.50;;;3.40;;
26820;SDS011;37186;51.394;5.454;2023-07-02T08:14:09;3.55;;;3.45;;
26820;SDS011;37186;51.394;5.454;2023-07-02T08:17:09;3.53;;;3.42;;
26820;SDS011;37186;51.394;5.454;2023-07-02T08:20:10;4.00;;;3.90;;
26820;SDS011;37186;51.394;5.454;2023-07-02T08:23:11;4.05;;;3.95;;
26820;SDS011;37186;51.394;5.454;2023-07-02T08:26:12;4.15;;;4.05;;
26820;SDS011;37186;51.394;5.454;2023-07-02T08:29:14;4.47;;;4.38;;
26820;SDS011;37186;51.394;5.454;2023-07-02T08:32:15;3.97;;;3.88;;
26820;SDS011;37186;51.394;5.454;2023-07-02T08:35:15;4.03;;;3.92;;
26820;SDS011;37186;51.394;5.454;2023-07-02T08:38:16;3.85;;;3.75;;
26820;SDS011;37186;51.394;5.454;2023-07-02T08:41:17;3.65;;;3.55;;
26820;SDS011;37186;51.394;5.454;2023-07-02T08:44:19;3.15;;;3.05;;
26820;SDS011;37186;51.394;5.454;2023-07-02T08:47:20;3.10;;;3.00;;
26820;SDS011;37186;51.394;5.454;2023-07-02T08:50:22;3.10;;;3.00;;
26820;SDS011;37186;51.394;5.454;2023-07-02T08:53:23;2.90;;;2.80;;
26820;SDS011;37186;51.394;5.454;2023-07-02T08:56:33;4.32;;;4.22;;
26820;SDS011;37186;51.394;5.454;2023-07-02T08:59:33;4.10;;;4.00;;
26820;SDS011;37186;51.394;5.454;2023-07-02T09:02:36;4.40;;;4.30;;
26820;SDS011;37186;51.394;5.454;2023-07-02T09:05:46;4.57;;;4.47;;
26820;SDS011;37186;51.394;5.454;2023-07-02T09:08:51;3.70;;;3.60;;
26820;SDS011;37186;51.394;5.454;2023-07-02T09:11:52;4.75;;;4.65;;
26820;SDS011;37186;51.394;5.454;2023-07-02T09:15:05;4.95;;;4.85;;
26820;SDS011;37186;51.394;5.454;2023-07-02T09:18:16;6.55;;;6.35;;
26820;SDS011;37186;51.394;5.454;2023-07-02T09:21:17;6.60;;;6.40;;
26820;SDS011;37186;51.394;5.454;2023-07-02T09:24:19;6.70;;;6.50;;
26820;SDS011;37186;51.394;5.454;2023-07-02T09:27:21;7.18;;;6.97;;
26820;SDS011;37186;51.394;5.454;2023-07-02T09:30:22;6.60;;;6.40;;
26820;SDS011;37186;51.394;5.454;2023-07-02T09:33:26;5.78;;;5.63;;
26820;SDS011;37186;51.394;5.454;2023-07-02T09:36:28;4.40;;;4.30;;
26820;SDS011;37186;51.394;5.454;2023-07-02T09:39:29;4.35;;;4.25;;
26820;SDS011;37186;51.394;5.454;2023-07-02T09:42:31;4.25;;;4.15;;
26820;SDS011;37186;51.394;5.454;2023-07-02T09:45:33;3.58;;;3.47;;
26820;SDS011;37186;51.394;5.454;2023-07-02T09:48:33;4.05;;;3.95;;
26820;SDS011;37186;51.394;5.454;2023-07-02T09:51:35;3.63;;;3.53;;
26820;SDS011;37186;51.394;5.454;2023-07-02T09:54:36;3.78;;;3.67;;
26820;SDS011;37186;51.394;5.454;2023-07-02T09:57:37;4.00;;;3.90;;
26820;SDS011;37186;51.394;5.454;2023-07-02T10:00:39;4.43;;;4.32;;
26820;SDS011;37186;51.394;5.454;2023-07-02T10:03:40;4.47;;;4.38;;
26820;SDS011;37186;51.394;5.454;2023-07-02T10:06:51;4.07;;;3.97;;
26820;SDS011;37186;51.394;5.454;2023-07-02T10:09:56;4.00;;;3.90;;
26820;SDS011;37186;51.394;5.454;2023-07-02T10:12:57;3.90;;;3.80;;
26820;SDS011;37186;51.394;5.454;2023-07-02T10:16:02;3.80;;;3.70;;
26820;SDS011;37186;51.394;5.454;2023-07-02T10:19:12;3.55;;;3.45;;
26820;SDS011;37186;51.394;5.454;2023-07-02T10:22:13;3.72;;;3.63;;
26820;SDS011;37186;51.394;5.454;2023-07-02T10:25:26;3.67;;;3.58;;
26820;SDS011;37186;51.394;5.454;2023-07-02T10:28:31;2.95;;;2.85;;
26820;SDS011;37186;51.394;5.454;2023-07-02T10:31:32;3.95;;;3.85;;
26820;SDS011;37186;51.394;5.454;2023-07-02T10:34:33;3.85;;;3.75;;
26820;SDS011;37186;51.394;5.454;2023-07-02T10:37:35;3.72;;;3.63;;
26820;SDS011;37186;51.394;5.454;2023-07-02T10:40:36;3.47;;;3.38;;
26820;SDS011;37186;51.394;5.454;2023-07-02T10:43:37;4.05;;;3.95;;
26820;SDS011;37186;51.394;5.454;2023-07-02T10:46:47;3.67;;;3.58;;
26820;SDS011;37186;51.394;5.454;2023-07-02T10:49:48;3.38;;;3.28;;
26820;SDS011;37186;51.394;5.454;2023-07-02T10:52:49;3.85;;;3.75;;
26820;SDS011;37186;51.394;5.454;2023-07-02T10:55:54;3.63;;;3.53;;
26820;SDS011;37186;51.394;5.454;2023-07-02T10:58:55;3.50;;;3.40;;
26820;SDS011;37186;51.394;5.454;2023-07-02T11:01:56;3.60;;;3.50;;
26820;SDS011;37186;51.394;5.454;2023-07-02T11:05:01;3.42;;;3.33;;
26820;SDS011;37186;51.394;5.454;2023-07-02T11:08:07;3.40;;;3.30;;
26820;SDS011;37186;51.394;5.454;2023-07-02T11:11:08;3.20;;;3.10;;
26820;SDS011;37186;51.394;5.454;2023-07-02T11:14:09;3.40;;;3.30;;
26820;SDS011;37186;51.394;5.454;2023-07-02T11:17:09;3.40;;;3.30;;
26820;SDS011;37186;51.394;5.454;2023-07-02T11:20:11;3.17;;;3.08;;
26820;SDS011;37186;51.394;5.454;2023-07-02T11:23:20;3.55;;;3.45;;
26820;SDS011;37186;51.394;5.454;2023-07-02T11:26:34;3.53;;;3.42;;
26820;SDS011;37186;51.394;5.454;2023-07-02T11:29:38;3.83;;;3.72;;
26820;SDS011;37186;51.394;5.454;2023-07-02T11:32:48;3.63;;;3.53;;
26820;SDS011;37186;51.394;5.454;2023-07-02T11:35:50;3.72;;;3.63;;
26820;SDS011;37186;51.394;5.454;2023-07-02T11:38:50;3.75;;;3.65;;
26820;SDS011;37186;51.394;5.454;2023-07-02T11:41:52;3.85;;;3.75;;
26820;SDS011;37186;51.394;5.454;2023-07-02T11:44:52;3.95;;;3.85;;
26820;SDS011;37186;51.394;5.454;2023-07-02T11:47:53;4.00;;;3.90;;
26820;SDS011;37186;51.394;5.454;2023-07-02T11:50:54;3.55;;;3.45;;
26820;SDS011;37186;51.394;5.454;2023-07-02T11:53:54;3.60;;;3.50;;
26820;SDS011;37186;51.394;5.454;2023-07-02T11:56:55;3.40;;;3.30;;
26820;SDS011;37186;51.394;5.454;2023-07-02T11:59:55;3.75;;;3.65;;
26820;SDS011;37186;51.394;5.454;2023-07-02T12:02:56;3.50;;;3.40;;
26820;SDS011;37186;51.394;5.454;2023-07-02T12:05:56;3.47;;;3.38;;
26820;SDS011;37186;51.394;5.454;2023-07-02T12:08:57;3.47;;;3.38;;
26820;SDS011;37186;51.394;5.454;2023-07-02T12:11:57;3.17;;;3.08;;
26820;SDS011;37186;51.394;5.454;2023-07-02T12:14:58;3.10;;;3.00;;
26820;SDS011;37186;51.394;5.454;2023-07-02T12:17:58;3.17;;;3.08;;
26820;SDS011;37186;51.394;5.454;2023-07-02T12:20:59;3.63;;;3.53;;
26820;SDS011;37186;51.394;5.454;2023-07-02T12:23:59;31.15;;;30.08;;
26820;SDS011;37186;51.394;5.454;2023-07-02T12:27:00;26.92;;;26.02;;
26820;SDS011;37186;51.394;5.454;2023-07-02T12:30:01;16.90;;;16.35;;
26820;SDS011;37186;51.394;5.454;2023-07-02T12:33:02;15.50;;;15.00;;
26820;SDS011;37186;51.394;5.454;2023-07-02T12:36:03;11.05;;;10.75;;
26820;SDS011;37186;51.394;5.454;2023-07-02T12:39:03;13.18;;;12.77;;
26820;SDS011;37186;51.394;5.454;2023-07-02T12:42:04;14.85;;;14.35;;
26820;SDS011;37186;51.394;5.454;2023-07-02T12:45:05;18.17;;;17.58;;
26820;SDS011;37186;51.394;5.454;2023-07-02T12:48:06;17.08;;;16.52;;
26820;SDS011;37186;51.394;5.454;2023-07-02T12:51:07;10.18;;;9.88;;
26820;SDS011;37186;51.394;5.454;2023-07-02T12:54:07;11.77;;;11.43;;
26820;SDS011;37186;51.394;5.454;2023-07-02T12:57:08;10.02;;;9.73;;
26820;SDS011;37186;51.394;5.454;2023-07-02T13:00:08;12.55;;;12.15;;
26820;SDS011;37186;51.394;5.454;2023-07-02T13:03:10;13.48;;;13.07;;
26820;SDS011;37186;51.394;5.454;2023-07-02T13:06:12;15.93;;;15.43;;
26820;SDS011;37186;51.394;5.454;2023-07-02T13:09:13;15.57;;;15.07;;
26820;SDS011;37186;51.394;5.454;2023-07-02T13:12:14;14.32;;;13.90;;
26820;SDS011;37186;51.394;5.454;2023-07-02T13:15:14;15.30;;;14.80;;
26820;SDS011;37186;51.394;5.454;2023-07-02T13:18:15;13.52;;;13.13;;
26820;SDS011;37186;51.394;5.454;2023-07-02T13:21:15;12.05;;;11.65;;
26820;SDS011;37186;51.394;5.454;2023-07-02T13:24:16;11.73;;;11.38;;
26820;SDS011;37186;51.394;5.454;2023-07-02T13:27:16;18.63;;;18.02;;
26820;SDS011;37186;51.394;5.454;2023-07-02T13:30:18;12.05;;;11.68;;
26820;SDS011;37186;51.394;5.454;2023-07-02T13:33:19;13.65;;;13.25;;
26820;SDS011;37186;51.394;5.454;2023-07-02T13:36:19;14.02;;;13.63;;
26820;SDS011;37186;51.394;5.454;2023-07-02T13:39:20;12.88;;;12.48;;
26820;SDS011;37186;51.394;5.454;2023-07-02T13:42:21;11.07;;;10.77;;
26820;SDS011;37186;51.394;5.454;2023-07-02T13:45:21;12.70;;;12.30;;
26820;SDS011;37186;51.394;5.454;2023-07-02T13:48:22;11.48;;;11.15;;
26820;SDS011;37186;51.394;5.454;2023-07-02T13:51:23;15.65;;;15.15;;
26820;SDS011;37186;51.394;5.454;2023-07-02T13:54:23;16.23;;;15.73;;
26820;SDS011;37186;51.394;5.454;2023-07-02T13:57:24;16.05;;;15.55;;
26820;SDS011;37186;51.394;5.454;2023-07-02T14:00:25;13.88;;;13.48;;
26820;SDS011;37186;51.394;5.454;2023-07-02T14:03:26;23.00;;;22.25;;
26820;SDS011;37186;51.394;5.454;2023-07-02T14:06:27;24.75;;;23.95;;
26820;SDS011;37186;51.394;5.454;2023-07-02T14:09:28;18.85;;;18.25;;
26820;SDS011;37186;51.394;5.454;2023-07-02T14:12:28;16.00;;;15.50;;
26820;SDS011;37186;51.394;5.454;2023-07-02T14:15:29;21.30;;;20.60;;
26820;SDS011;37186;51.394;5.454;2023-07-02T14:18:30;16.73;;;16.23;;
26820;SDS011;37186;51.394;5.454;2023-07-02T14:21:31;24.70;;;23.90;;
26820;SDS011;37186;51.394;5.454;2023-07-02T14:24:31;15.82;;;15.32;;
26820;SDS011;37186;51.394;5.454;2023-07-02T14:27:33;15.38;;;14.88;;
26820;SDS011;37186;51.394;5.454;2023-07-02T14:30:34;12.93;;;12.52;;
26820;SDS011;37186;51.394;5.454;2023-07-02T14:33:35;10.63;;;10.32;;
26820;SDS011;37186;51.394;5.454;2023-07-02T14:36:37;7.63;;;7.43;;
26820;SDS011;37186;51.394;5.454;2023-07-02T14:39:37;6.50;;;6.30;;
26820;SDS011;37186;51.394;5.454;2023-07-02T14:42:38;8.10;;;7.90;;
26820;SDS011;37186;51.394;5.454;2023-07-02T14:45:49;6.63;;;6.43;;
26820;SDS011;37186;51.394;5.454;2023-07-02T14:48:52;8.13;;;7.93;;
26820;SDS011;37186;51.394;5.454;2023-07-02T14:51:52;8.40;;;8.20;;
26820;SDS011;37186;51.394;5.454;2023-07-02T14:54:53;9.25;;;8.95;;
26820;SDS011;37186;51.394;5.454;2023-07-02T14:57:54;11.52;;;11.20;;
26820;SDS011;37186;51.394;5.454;2023-07-02T15:00:55;7.63;;;7.43;;
26820;SDS011;37186;51.394;5.454;2023-07-02T15:03:57;7.72;;;7.53;;
26820;SDS011;37186;51.394;5.454;2023-07-02T15:06:57;7.88;;;7.68;;
26820;SDS011;37186;51.394;5.454;2023-07-02T15:09:58;10.73;;;10.43;;
26820;SDS011;37186;51.394;5.454;2023-07-02T15:12:58;14.05;;;13.65;;
26820;SDS011;37186;51.394;5.454;2023-07-02T15:15:59;30.98;;;29.90;;
26820;SDS011;37186;51.394;5.454;2023-07-02T15:18:59;31.45;;;30.33;;
26820;SDS011;37186;51.394;5.454;2023-07-02T15:22:00;28.20;;;27.23;;
26820;SDS011;37186;51.394;5.454;2023-07-02T15:25:01;24.67;;;23.77;;
26820;SDS011;37186;51.394;5.454;2023-07-02T15:28:01;35.67;;;34.38;;
26820;SDS011;37186;51.394;5.454;2023-07-02T15:31:03;21.55;;;20.85;;
26820;SDS011;37186;51.394;5.454;2023-07-02T15:34:10;13.27;;;12.88;;
26820;SDS011;37186;51.394;5.454;2023-07-02T15:37:10;13.73;;;13.32;;
26820;SDS011;37186;51.394;5.454;2023-07-02T15:40:11;9.45;;;9.15;;
26820;SDS011;37186;51.394;5.454;2023-07-02T15:43:11;11.07;;;10.77;;
26820;SDS011;37186;51.394;5.454;2023-07-02T15:46:13;13.55;;;13.15;;
26820;SDS011;37186;51.394;5.454;2023-07-02T15:49:15;16.92;;;16.40;;
26820;SDS011;37186;51.394;5.454;2023-07-02T15:52:16;29.52;;;28.48;;
26820;SDS011;37186;51.394;5.454;2023-07-02T15:55:17;35.92;;;34.60;;
26820;SDS011;37186;51.394;5.454;2023-07-02T15:58:18;29.08;;;28.08;;
26820;SDS011;37186;51.394;5.454;2023-07-02T16:01:19;22.95;;;22.17;;
26820;SDS011;37186;51.394;5.454;2023-07-02T16:04:20;33.60;;;32.38;;
26820;SDS011;37186;51.394;5.454;2023-07-02T16:07:20;34.33;;;33.08;;
26820;SDS011;37186;51.394;5.454;2023-07-02T16:10:23;45.33;;;43.65;;
26820;SDS011;37186;51.394;5.454;2023-07-02T16:13:23;37.05;;;35.72;;
26820;SDS011;37186;51.394;5.454;2023-07-02T16:16:24;34.90;;;33.67;;
26820;SDS011;37186;51.394;5.454;2023-07-02T16:19:24;36.70;;;35.40;;
26820;SDS011;37186;51.394;5.454;2023-07-02T16:22:25;39.05;;;37.65;;
26820;SDS011;37186;51.394;5.454;2023-07-02T16:25:26;34.88;;;33.67;;
26820;SDS011;37186;51.394;5.454;2023-07-02T16:28:27;39.03;;;37.63;;
26820;SDS011;37186;51.394;5.454;2023-07-02T16:31:28;30.65;;;29.60;;
26820;SDS011;37186;51.394;5.454;2023-07-02T16:34:29;28.23;;;27.27;;
26820;SDS011;37186;51.394;5.454;2023-07-02T16:37:30;33.10;;;31.95;;
26820;SDS011;37186;51.394;5.454;2023-07-02T16:40:30;23.10;;;22.33;;
26820;SDS011;37186;51.394;5.454;2023-07-02T16:43:31;22.02;;;21.33;;
26820;SDS011;37186;51.394;5.454;2023-07-02T16:46:32;24.90;;;24.10;;
26820;SDS011;37186;51.394;5.454;2023-07-02T16:49:33;23.02;;;22.23;;
26820;SDS011;37186;51.394;5.454;2023-07-02T16:52:33;20.40;;;19.75;;
26820;SDS011;37186;51.394;5.454;2023-07-02T16:55:35;20.92;;;20.23;;
26820;SDS011;37186;51.394;5.454;2023-07-02T16:58:37;18.60;;;18.00;;
26820;SDS011;37186;51.394;5.454;2023-07-02T17:01:38;18.88;;;18.27;;
26820;SDS011;37186;51.394;5.454;2023-07-02T17:04:38;17.98;;;17.38;;
26820;SDS011;37186;51.394;5.454;2023-07-02T17:07:39;19.63;;;19.02;;
26820;SDS011;37186;51.394;5.454;2023-07-02T17:10:39;19.55;;;18.95;;
26820;SDS011;37186;51.394;5.454;2023-07-02T17:13:40;19.70;;;19.08;;
26820;SDS011;37186;51.394;5.454;2023-07-02T17:16:40;20.23;;;19.55;;
26820;SDS011;37186;51.394;5.454;2023-07-02T17:19:42;22.45;;;21.73;;
26820;SDS011;37186;51.394;5.454;2023-07-02T17:22:45;20.00;;;19.38;;
26820;SDS011;37186;51.394;5.454;2023-07-02T17:25:46;19.45;;;18.85;;
26820;SDS011;37186;51.394;5.454;2023-07-02T17:28:47;21.15;;;20.45;;
26820;SDS011;37186;51.394;5.454;2023-07-02T17:31:49;35.78;;;34.53;;
26820;SDS011;37186;51.394;5.454;2023-07-02T17:34:54;31.15;;;30.08;;
26820;SDS011;37186;51.394;5.454;2023-07-02T17:37:55;22.63;;;21.90;;
26820;SDS011;37186;51.394;5.454;2023-07-02T17:40:56;24.25;;;23.45;;
26820;SDS011;37186;51.394;5.454;2023-07-02T17:43:57;24.95;;;24.13;;
26820;SDS011;37186;51.394;5.454;2023-07-02T17:46:58;20.95;;;20.27;;
26820;SDS011;37186;51.394;5.454;2023-07-02T17:50:03;13.82;;;13.43;;
26820;SDS011;37186;51.394;5.454;2023-07-02T17:53:04;14.10;;;13.70;;
26820;SDS011;37186;51.394;5.454;2023-07-02T17:56:05;13.57;;;13.18;;
26820;SDS011;37186;51.394;5.454;2023-07-02T17:59:06;11.23;;;10.93;;
26820;SDS011;37186;51.394;5.454;2023-07-02T18:02:08;11.65;;;11.32;;
26820;SDS011;37186;51.394;5.454;2023-07-02T18:05:10;10.13;;;9.82;;